sensor_id;sensor_type;location;lat;lon;timestamp;pressure;altitude;pressure_sealevel;temperature;humidity
21449;BME280;10885;52.830;13.788;2022-09-13T05:02:54;100450.94;;;13.81;61.93
21449;BME280;10885;52.830;13.788;2022-09-13T05:08:15;100452.00;;;13.86;61.77
21449;BME280;10885;52.830;13.788;2022-09-13T05:13:36;100441.16;;;13.93;61.55
21449;BME280;10885;52.830;13.788;2022-09-13T05:18:58;100447.63;;;14.05;61.32
21449;BME280;10885;52.830;13.788;2022-09-13T05:24:19;100453.28;;;14.17;61.50
21449;BME280;10885;52.830;13.788;2022-09-13T05:29:39;100449.88;;;14.18;61.99
21449;BME280;10885;52.830;13.788;2022-09-13T05:35:00;100435.25;;;14.17;61.23
21449;BME280;10885;52.830;13.788;2022-09-13T05:40:21;100440.50;;;14.20;61.12
21449;BME280;10885;52.830;13.788;2022-09-13T05:45:42;100437.13;;;14.21;61.11
21449;BME280;10885;52.830;13.788;2022-09-13T05:51:07;100444.47;;;14.33;61.66
21449;BME280;10885;52.830;13.788;2022-09-13T05:56:28;100440.78;;;14.49;61.17
21449;BME280;10885;52.830;13.788;2022-09-13T06:01:49;100437.91;;;14.62;60.74
21449;BME280;10885;52.830;13.788;2022-09-13T06:07:11;100433.56;;;14.61;60.68
21449;BME280;10885;52.830;13.788;2022-09-13T06:12:32;100434.25;;;14.57;60.57
21449;BME280;10885;52.830;13.788;2022-09-13T06:17:52;100441.91;;;14.56;61.06
21449;BME280;10885;52.830;13.788;2022-09-13T06:23:14;100441.44;;;14.43;60.74
21449;BME280;10885;52.830;13.788;2022-09-13T06:28:36;100455.97;;;14.41;60.92
21449;BME280;10885;52.830;13.788;2022-09-13T06:33:59;100457.53;;;14.38;60.71
21449;BME280;10885;52.830;13.788;2022-09-13T06:39:20;100452.13;;;14.31;61.10
21449;BME280;10885;52.830;13.788;2022-09-13T06:44:41;100475.47;;;14.35;61.99
21449;BME280;10885;52.830;13.788;2022-09-13T06:50:01;100444.63;;;14.38;60.99
21449;BME280;10885;52.830;13.788;2022-09-13T06:55:22;100446.88;;;14.51;61.87
21449;BME280;10885;52.830;13.788;2022-09-13T07:00:43;100430.88;;;14.81;61.26
21449;BME280;10885;52.830;13.788;2022-09-13T07:06:17;100422.50;;;15.10;61.08
21449;BME280;10885;52.830;13.788;2022-09-13T07:11:43;100413.13;;;15.13;61.75
21449;BME280;10885;52.830;13.788;2022-09-13T07:17:05;100411.91;;;15.03;60.92
21449;BME280;10885;52.830;13.788;2022-09-13T07:22:26;100400.91;;;15.08;60.94
21449;BME280;10885;52.830;13.788;2022-09-13T07:27:47;100418.94;;;15.31;61.06
21449;BME280;10885;52.830;13.788;2022-09-13T07:33:08;100417.66;;;15.44;61.65
21449;BME280;10885;52.830;13.788;2022-09-13T07:38:29;100405.19;;;15.58;60.62
21449;BME280;10885;52.830;13.788;2022-09-13T07:43:51;100403.00;;;15.68;60.51
21449;BME280;10885;52.830;13.788;2022-09-13T07:49:13;100407.53;;;15.74;60.22
21449;BME280;10885;52.830;13.788;2022-09-13T07:54:34;100405.00;;;15.76;60.50
21449;BME280;10885;52.830;13.788;2022-09-13T07:59:57;100399.25;;;15.84;60.36
21449;BME280;10885;52.830;13.788;2022-09-13T08:05:18;100398.09;;;16.02;60.25
21449;BME280;10885;52.830;13.788;2022-09-13T08:10:39;100402.63;;;16.36;60.07
21449;BME280;10885;52.830;13.788;2022-09-13T08:16:00;100415.13;;;16.51;60.39
21449;BME280;10885;52.830;13.788;2022-09-13T08:21:23;100406.72;;;16.85;59.96
21449;BME280;10885;52.830;13.788;2022-09-13T08:26:45;100402.03;;;17.67;59.08
21449;BME280;10885;52.830;13.788;2022-09-13T08:32:06;100399.41;;;17.66;58.84
21449;BME280;10885;52.830;13.788;2022-09-13T08:37:26;100383.97;;;19.73;59.43
21449;BME280;10885;52.830;13.788;2022-09-13T08:43:05;100388.94;;;25.28;53.23
21449;BME280;10885;52.830;13.788;2022-09-13T08:48:37;100393.16;;;22.38;52.00
21449;BME280;10885;52.830;13.788;2022-09-13T08:53:59;100407.84;;;20.58;53.99
21449;BME280;10885;52.830;13.788;2022-09-13T09:05:27;100395.59;;;21.20;54.51
21449;BME280;10885;52.830;13.788;2022-09-13T09:10:50;100396.84;;;21.53;53.90
21449;BME280;10885;52.830;13.788;2022-09-13T09:21:33;100395.31;;;20.95;53.54
21449;BME280;10885;52.830;13.788;2022-09-13T09:26:56;100392.41;;;20.71;53.73
21449;BME280;10885;52.830;13.788;2022-09-13T09:38:35;100378.88;;;26.76;46.54
21449;BME280;10885;52.830;13.788;2022-09-13T09:44:19;100384.06;;;23.65;48.67
21449;BME280;10885;52.830;13.788;2022-09-13T09:55:30;100375.97;;;22.78;50.70
21449;BME280;10885;52.830;13.788;2022-09-13T10:00:54;100363.09;;;24.26;49.85
21449;BME280;10885;52.830;13.788;2022-09-13T10:06:19;100367.50;;;23.87;49.50
21449;BME280;10885;52.830;13.788;2022-09-13T10:11:54;100353.31;;;22.76;50.10
21449;BME280;10885;52.830;13.788;2022-09-13T10:17:26;100368.00;;;22.49;50.94
21449;BME280;10885;52.830;13.788;2022-09-13T10:23:09;100355.91;;;22.71;50.84
21449;BME280;10885;52.830;13.788;2022-09-13T10:28:40;100360.56;;;21.82;51.46
21449;BME280;10885;52.830;13.788;2022-09-13T10:34:10;100362.03;;;21.48;52.08
21449;BME280;10885;52.830;13.788;2022-09-13T10:39:35;100353.72;;;21.01;52.79
21449;BME280;10885;52.830;13.788;2022-09-13T10:45:17;100355.28;;;20.89;53.48
21449;BME280;10885;52.830;13.788;2022-09-13T10:51:17;100357.34;;;20.49;54.07
21449;BME280;10885;52.830;13.788;2022-09-13T10:56:41;100353.59;;;20.26;54.22
21449;BME280;10885;52.830;13.788;2022-09-13T11:19:31;100334.78;;;20.49;54.66
21449;BME280;10885;52.830;13.788;2022-09-13T11:30:23;100325.50;;;22.84;53.05
21449;BME280;10885;52.830;13.788;2022-09-13T11:41:49;100333.28;;;22.73;51.65
21449;BME280;10885;52.830;13.788;2022-09-13T11:52:52;100329.69;;;20.55;54.78
21449;BME280;10885;52.830;13.788;2022-09-13T11:58:35;100332.44;;;20.02;55.55
21449;BME280;10885;52.830;13.788;2022-09-13T12:04:08;100328.44;;;19.71;56.41
21449;BME280;10885;52.830;13.788;2022-09-13T12:09:44;100338.44;;;19.46;56.65
21449;BME280;10885;52.830;13.788;2022-09-13T12:15:25;100339.94;;;19.33;57.62
21449;BME280;10885;52.830;13.788;2022-09-13T12:21:04;100333.25;;;19.46;57.51
21449;BME280;10885;52.830;13.788;2022-09-13T12:26:36;100329.84;;;20.05;57.08
21449;BME280;10885;52.830;13.788;2022-09-13T12:32:03;100340.63;;;19.72;57.05
21449;BME280;10885;52.830;13.788;2022-09-13T13:05:40;100300.50;;;21.74;56.77
21449;BME280;10885;52.830;13.788;2022-09-13T13:11:04;100309.72;;;22.56;55.84
21449;BME280;10885;52.830;13.788;2022-09-13T13:16:35;100308.69;;;22.28;55.17
21449;BME280;10885;52.830;13.788;2022-09-13T13:27:55;100298.41;;;22.62;54.96
21449;BME280;10885;52.830;13.788;2022-09-13T13:33:21;100289.34;;;21.95;55.53
21449;BME280;10885;52.830;13.788;2022-09-13T13:38:47;100293.59;;;21.82;55.89
21449;BME280;10885;52.830;13.788;2022-09-13T13:50:03;100268.88;;;22.84;55.04
21449;BME280;10885;52.830;13.788;2022-09-13T14:00:53;100264.47;;;22.76;54.76
21449;BME280;10885;52.830;13.788;2022-09-13T14:06:23;100263.50;;;22.41;55.01
21449;BME280;10885;52.830;13.788;2022-09-13T14:11:55;100264.44;;;22.54;55.12
21449;BME280;10885;52.830;13.788;2022-09-13T14:22:49;100268.75;;;22.43;54.85
21449;BME280;10885;52.830;13.788;2022-09-13T14:28:16;100270.34;;;22.16;55.41
21449;BME280;10885;52.830;13.788;2022-09-13T14:33:39;100264.25;;;22.17;55.60
21449;BME280;10885;52.830;13.788;2022-09-13T14:39:00;100257.19;;;21.99;55.62
21449;BME280;10885;52.830;13.788;2022-09-13T14:44:24;100255.31;;;21.80;56.01
21449;BME280;10885;52.830;13.788;2022-09-13T14:49:53;100247.19;;;21.38;56.96
21449;BME280;10885;52.830;13.788;2022-09-13T14:55:21;100245.22;;;21.10;57.18
21449;BME280;10885;52.830;13.788;2022-09-13T15:00:51;100252.91;;;20.97;57.52
21449;BME280;10885;52.830;13.788;2022-09-13T15:06:24;100235.34;;;20.78;58.11
21449;BME280;10885;52.830;13.788;2022-09-13T15:17:13;100229.72;;;20.42;58.61
21449;BME280;10885;52.830;13.788;2022-09-13T15:22:34;100228.81;;;20.39;58.63
21449;BME280;10885;52.830;13.788;2022-09-13T15:27:55;100219.25;;;20.36;58.87
21449;BME280;10885;52.830;13.788;2022-09-13T15:33:29;100226.13;;;20.30;59.06
21449;BME280;10885;52.830;13.788;2022-09-13T15:39:14;100220.84;;;20.23;59.89
21449;BME280;10885;52.830;13.788;2022-09-13T15:44:36;100223.34;;;20.17;59.22
21449;BME280;10885;52.830;13.788;2022-09-13T15:50:02;100218.84;;;20.04;59.52
21449;BME280;10885;52.830;13.788;2022-09-13T15:55:24;100214.38;;;19.95;59.59
21449;BME280;10885;52.830;13.788;2022-09-13T16:00:45;100209.19;;;19.94;59.53
21449;BME280;10885;52.830;13.788;2022-09-13T16:06:08;100205.75;;;19.96;59.75
21449;BME280;10885;52.830;13.788;2022-09-13T16:11:29;100201.31;;;19.89;60.04
21449;BME280;10885;52.830;13.788;2022-09-13T16:16:50;100202.09;;;19.82;60.19
21449;BME280;10885;52.830;13.788;2022-09-13T16:22:11;100202.72;;;19.68;60.12
21449;BME280;10885;52.830;13.788;2022-09-13T16:27:32;100200.84;;;19.57;60.49
21449;BME280;10885;52.830;13.788;2022-09-13T16:32:54;100206.69;;;19.42;60.73
21449;BME280;10885;52.830;13.788;2022-09-13T16:38:14;100204.72;;;19.27;60.92
21449;BME280;10885;52.830;13.788;2022-09-13T16:43:35;100198.41;;;19.13;61.11
21449;BME280;10885;52.830;13.788;2022-09-13T16:48:56;100204.22;;;18.96;61.37
21449;BME280;10885;52.830;13.788;2022-09-13T16:54:18;100205.72;;;18.83;61.31
21449;BME280;10885;52.830;13.788;2022-09-13T16:59:39;100208.88;;;18.70;61.83
21449;BME280;10885;52.830;13.788;2022-09-13T17:05:00;100212.28;;;18.64;61.77
21449;BME280;10885;52.830;13.788;2022-09-13T17:10:21;100208.66;;;18.58;61.96
21449;BME280;10885;52.830;13.788;2022-09-13T17:15:42;100208.47;;;18.47;62.00
21449;BME280;10885;52.830;13.788;2022-09-13T17:21:03;100209.16;;;18.37;62.28
21449;BME280;10885;52.830;13.788;2022-09-13T17:26:24;100212.28;;;18.22;62.40
21449;BME280;10885;52.830;13.788;2022-09-13T17:31:45;100209.56;;;18.16;62.78
21449;BME280;10885;52.830;13.788;2022-09-13T17:37:06;100214.63;;;18.09;62.98
21449;BME280;10885;52.830;13.788;2022-09-13T17:42:27;100211.13;;;18.07;63.01
21449;BME280;10885;52.830;13.788;2022-09-13T17:47:51;100214.50;;;18.03;63.31
21449;BME280;10885;52.830;13.788;2022-09-13T17:53:12;100229.13;;;18.00;63.21
21449;BME280;10885;52.830;13.788;2022-09-13T17:58:33;100223.94;;;18.00;63.34
21449;BME280;10885;52.830;13.788;2022-09-13T18:03:55;100232.53;;;17.97;63.36
21449;BME280;10885;52.830;13.788;2022-09-13T18:09:16;100228.97;;;17.92;63.50
21449;BME280;10885;52.830;13.788;2022-09-13T18:14:37;100233.97;;;17.84;63.48
21449;BME280;10885;52.830;13.788;2022-09-13T18:19:58;100236.44;;;17.80;63.69
21449;BME280;10885;52.830;13.788;2022-09-13T18:25:19;100244.88;;;17.71;63.73
21449;BME280;10885;52.830;13.788;2022-09-13T18:30:50;100243.06;;;17.67;63.90
21449;BME280;10885;52.830;13.788;2022-09-13T18:36:14;100240.28;;;17.59;63.87
21449;BME280;10885;52.830;13.788;2022-09-13T18:41:37;100240.94;;;17.50;63.99
21449;BME280;10885;52.830;13.788;2022-09-13T18:47:00;100251.16;;;17.44;64.34
21449;BME280;10885;52.830;13.788;2022-09-13T18:52:22;100254.47;;;17.39;64.41
21449;BME280;10885;52.830;13.788;2022-09-13T18:57:43;100254.31;;;17.33;64.30
21449;BME280;10885;52.830;13.788;2022-09-13T19:03:04;100256.81;;;17.28;64.64
21449;BME280;10885;52.830;13.788;2022-09-13T19:08:32;100262.69;;;17.22;64.70
21449;BME280;10885;52.830;13.788;2022-09-13T19:13:53;100265.09;;;17.13;64.64
21449;BME280;10885;52.830;13.788;2022-09-13T19:19:14;100259.69;;;17.05;64.78
21449;BME280;10885;52.830;13.788;2022-09-13T19:24:35;100259.53;;;16.99;64.79
21449;BME280;10885;52.830;13.788;2022-09-13T19:29:57;100267.09;;;16.92;65.17
21449;BME280;10885;52.830;13.788;2022-09-13T19:35:18;100265.22;;;16.86;64.92
21449;BME280;10885;52.830;13.788;2022-09-13T19:40:41;100261.53;;;16.78;65.17
21449;BME280;10885;52.830;13.788;2022-09-13T19:46:05;100254.47;;;16.72;65.35
21449;BME280;10885;52.830;13.788;2022-09-13T19:51:29;100268.97;;;16.67;65.41
21449;BME280;10885;52.830;13.788;2022-09-13T19:56:50;100263.53;;;16.56;65.38
21449;BME280;10885;52.830;13.788;2022-09-13T20:02:12;100265.97;;;16.52;65.61
21449;BME280;10885;52.830;13.788;2022-09-13T20:07:33;100269.97;;;16.40;65.64
21449;BME280;10885;52.830;13.788;2022-09-13T20:12:54;100279.28;;;16.34;65.92
21449;BME280;10885;52.830;13.788;2022-09-13T20:18:15;100269.56;;;16.26;65.84
21449;BME280;10885;52.830;13.788;2022-09-13T20:23:38;100282.31;;;16.20;65.78
21449;BME280;10885;52.830;13.788;2022-09-13T20:29:02;100281.28;;;16.14;65.84
21449;BME280;10885;52.830;13.788;2022-09-13T20:34:23;100283.75;;;16.10;66.30
21449;BME280;10885;52.830;13.788;2022-09-13T20:39:44;100275.88;;;16.07;66.53
21449;BME280;10885;52.830;13.788;2022-09-13T20:45:05;100274.78;;;15.99;65.78
21449;BME280;10885;52.830;13.788;2022-09-13T20:50:26;100265.91;;;15.91;65.93
21449;BME280;10885;52.830;13.788;2022-09-13T20:55:48;100268.44;;;15.89;65.98
21449;BME280;10885;52.830;13.788;2022-09-13T21:01:12;100264.81;;;15.83;66.59
21449;BME280;10885;52.830;13.788;2022-09-13T21:06:41;100274.91;;;15.75;66.19
21449;BME280;10885;52.830;13.788;2022-09-13T21:12:22;100274.69;;;15.69;66.29
21449;BME280;10885;52.830;13.788;2022-09-13T21:17:43;100277.00;;;15.60;66.47
21449;BME280;10885;52.830;13.788;2022-09-13T21:23:05;100275.94;;;15.55;66.35
21449;BME280;10885;52.830;13.788;2022-09-13T21:28:25;100277.56;;;15.51;66.61
21449;BME280;10885;52.830;13.788;2022-09-13T21:33:46;100280.72;;;15.42;66.49
21449;BME280;10885;52.830;13.788;2022-09-13T21:39:07;100270.94;;;15.34;66.38
21449;BME280;10885;52.830;13.788;2022-09-13T21:44:28;100270.00;;;15.30;66.75
